createdAt,value
2022-10-19T00:00:57.215Z,13.9286
2022-10-19T00:01:57.308Z,13.9286
2022-10-19T00:02:57.264Z,13.9286
2022-10-19T00:03:57.293Z,13.9286
2022-10-19T00:04:57.329Z,13.8571
2022-10-19T00:05:57.356Z,13.8571
2022-10-19T00:06:57.389Z,13.8571
2022-10-19T00:07:57.421Z,13.8571
2022-10-19T00:08:57.459Z,13.8571
2022-10-19T00:09:57.497Z,13.8571
2022-10-19T00:10:57.535Z,13.8571
2022-10-19T00:11:57.568Z,13.8571
2022-10-19T00:12:57.606Z,13.9286
2022-10-19T00:13:57.640Z,13.9286
2022-10-19T00:14:57.675Z,13.9286
2022-10-19T00:15:57.707Z,13.9286
2022-10-19T00:16:57.748Z,13.9286
2022-10-19T00:17:57.781Z,13.9286
2022-10-19T00:18:57.814Z,13.9286
2022-10-19T00:19:57.848Z,13.9286
2022-10-19T00:20:57.883Z,13.9286
2022-10-19T00:21:57.917Z,13.9286
2022-10-19T00:22:57.954Z,13.9286
2022-10-19T00:23:57.990Z,13.9286
2022-10-19T00:24:58.023Z,13.9286
2022-10-19T00:25:58.051Z,13.9286
2022-10-19T00:26:58.096Z,13.9286
2022-10-19T00:27:58.115Z,13.9286
2022-10-19T00:28:58.332Z,13.9286
2022-10-19T00:29:58.188Z,13.9286
2022-10-19T00:30:58.220Z,13.9286
2022-10-19T00:31:58.260Z,13.9286
2022-10-19T00:32:58.287Z,13.9286
2022-10-19T00:33:58.320Z,13.9286
2022-10-19T00:34:58.345Z,13.9286
2022-10-19T00:35:58.373Z,13.9286
2022-10-19T00:36:58.408Z,13.9286
2022-10-19T00:37:58.438Z,13.9286
2022-10-19T00:38:58.459Z,13.9286
2022-10-19T00:39:58.491Z,13.9286
2022-10-19T00:40:58.531Z,13.9286
2022-10-19T00:41:58.557Z,13.9286
2022-10-19T00:42:58.585Z,13.9286
2022-10-19T00:43:58.615Z,13.9286
2022-10-19T00:44:58.649Z,13.9286
2022-10-19T00:45:58.674Z,13.9286
2022-10-19T00:46:58.702Z,13.9286
2022-10-19T00:47:58.731Z,13.9286
2022-10-19T00:49:01.035Z,13.9286
2022-10-19T00:49:58.804Z,13.9286
2022-10-19T00:50:58.842Z,13.9286
2022-10-19T00:51:58.877Z,13.9286
2022-10-19T00:52:58.916Z,13.9286
2022-10-19T00:53:58.950Z,13.9286
2022-10-19T00:54:58.987Z,13.9286
2022-10-19T00:55:59.013Z,13.9286
2022-10-19T00:56:59.042Z,13.9286
2022-10-19T00:57:59.076Z,13.9286
2022-10-19T00:58:59.113Z,13.9286
2022-10-19T00:59:59.137Z,13.9286
2022-10-19T01:00:59.197Z,13.9286
2022-10-19T01:01:59.197Z,13.9286
2022-10-19T01:02:59.221Z,13.9286
2022-10-19T01:03:59.247Z,13.9286
2022-10-19T01:04:59.295Z,13.9286
2022-10-19T01:05:59.322Z,13.9286
2022-10-19T01:06:59.352Z,13.9286
2022-10-19T01:07:59.379Z,13.9286
2022-10-19T01:08:59.422Z,13.9286
2022-10-19T01:09:59.460Z,13.9286
2022-10-19T01:10:59.505Z,13.9286
2022-10-19T01:11:59.529Z,13.9286
2022-10-19T01:12:59.572Z,13.9286
2022-10-19T01:13:59.597Z,13.9286
2022-10-19T01:14:59.628Z,13.9286
2022-10-19T01:15:59.674Z,13.9286
2022-10-19T01:16:59.704Z,13.9286
2022-10-19T01:17:59.763Z,13.9286
2022-10-19T01:18:59.777Z,13.9286
2022-10-19T01:19:59.814Z,13.9286
2022-10-19T01:20:59.846Z,13.9286
2022-10-19T01:21:59.879Z,13.9286
2022-10-19T01:22:59.911Z,14
2022-10-19T01:23:59.943Z,14
2022-10-19T01:24:59.979Z,14
2022-10-19T01:26:00.011Z,14
2022-10-19T01:27:00.046Z,14
2022-10-19T01:28:00.097Z,14
2022-10-19T01:29:00.221Z,14
2022-10-19T01:30:00.177Z,14
2022-10-19T01:31:00.207Z,14
2022-10-19T01:32:00.236Z,13.9286
2022-10-19T01:33:00.275Z,14
2022-10-19T01:34:00.306Z,13.9286
2022-10-19T01:35:00.334Z,13.9286
2022-10-19T01:36:00.385Z,13.9286
2022-10-19T01:37:00.408Z,13.9286
2022-10-19T01:38:00.450Z,13.9286
2022-10-19T01:39:00.486Z,13.8571
2022-10-19T01:40:00.521Z,13.8571
2022-10-19T01:41:00.552Z,13.8571
2022-10-19T01:42:00.582Z,13.8571
2022-10-19T01:43:00.614Z,13.8571
2022-10-19T01:44:00.643Z,13.7857
2022-10-19T01:45:00.675Z,13.7857
2022-10-19T01:46:00.728Z,13.7857
2022-10-19T01:47:00.746Z,13.7857
2022-10-19T01:48:00.778Z,13.7857
2022-10-19T01:49:00.803Z,13.7857
2022-10-19T01:50:00.834Z,13.7857
2022-10-19T01:51:00.865Z,13.7857
2022-10-19T01:52:00.926Z,13.7857
2022-10-19T01:53:00.924Z,13.7857
2022-10-19T01:54:00.960Z,13.7857
2022-10-19T01:55:00.995Z,13.7857
2022-10-19T01:56:01.030Z,13.7857
2022-10-19T01:57:01.060Z,13.7857
2022-10-19T01:58:01.090Z,13.7857
2022-10-19T01:59:01.135Z,13.7857
2022-10-19T02:00:01.163Z,13.7857
2022-10-19T02:01:01.332Z,13.7857
2022-10-19T02:02:01.261Z,13.7857
2022-10-19T02:03:01.273Z,13.7857
2022-10-19T02:04:01.303Z,13.7857
2022-10-19T02:05:01.336Z,13.8571
2022-10-19T02:06:01.375Z,13.7857
2022-10-19T02:07:01.425Z,13.8571
2022-10-19T02:08:01.439Z,13.8571
2022-10-19T02:09:01.475Z,13.8571
2022-10-19T02:10:01.596Z,13.8571
2022-10-19T02:11:01.544Z,13.8571
2022-10-19T02:12:01.582Z,13.8571
2022-10-19T02:13:01.617Z,13.8571
2022-10-19T02:14:01.648Z,13.8571
2022-10-19T02:15:01.678Z,13.8571
2022-10-19T02:16:01.715Z,13.8571
2022-10-19T02:17:01.751Z,13.8571
2022-10-19T02:18:01.809Z,13.8571
2022-10-19T02:19:01.821Z,13.8571
2022-10-19T02:20:01.853Z,13.8571
2022-10-19T02:21:01.887Z,13.8571
2022-10-19T02:22:01.918Z,13.8571
2022-10-19T02:23:01.953Z,13.8571
2022-10-19T02:24:01.996Z,13.8571
2022-10-19T02:25:02.040Z,13.8571
2022-10-19T02:26:02.060Z,13.8571
2022-10-19T02:27:02.102Z,13.8571
2022-10-19T02:28:02.146Z,13.8571
2022-10-19T02:29:02.186Z,13.8571
2022-10-19T02:30:02.201Z,13.8571
2022-10-19T02:31:02.235Z,13.8571
2022-10-19T02:32:02.268Z,13.8571
2022-10-19T02:33:02.301Z,13.8571
2022-10-19T02:34:02.336Z,13.8571
2022-10-19T02:35:02.371Z,13.8571
2022-10-19T02:36:02.404Z,13.8571
2022-10-19T02:37:02.438Z,13.8571
2022-10-19T02:38:02.473Z,13.8571
2022-10-19T02:39:02.508Z,13.8571
2022-10-19T02:40:02.556Z,13.8571
2022-10-19T02:41:02.584Z,13.8571
2022-10-19T02:42:02.619Z,13.8571
2022-10-19T02:43:02.647Z,13.8571
2022-10-19T02:44:02.679Z,13.8571
2022-10-19T02:45:02.711Z,13.8571
2022-10-19T02:46:02.736Z,13.8571
2022-10-19T02:47:02.767Z,13.8571
2022-10-19T02:48:02.807Z,13.8571
2022-10-19T02:49:02.845Z,13.8571
2022-10-19T02:50:02.880Z,13.8571
2022-10-19T02:51:02.914Z,13.8571
2022-10-19T02:52:02.942Z,13.8571
2022-10-19T02:53:02.979Z,13.8571
2022-10-19T02:54:05.158Z,13.8571
2022-10-19T02:55:03.047Z,13.8571
2022-10-19T02:56:03.079Z,13.9286
2022-10-19T02:57:03.107Z,13.9286
2022-10-19T02:58:03.147Z,13.9286
2022-10-19T02:59:03.180Z,13.8571
2022-10-19T03:00:03.214Z,13.9286
2022-10-19T03:01:03.365Z,13.9286
2022-10-19T03:02:03.277Z,13.9286
2022-10-19T03:03:03.308Z,13.9286
2022-10-19T03:04:03.343Z,13.9286
2022-10-19T03:05:03.377Z,13.9286
2022-10-19T03:06:03.418Z,13.9286
2022-10-19T03:07:03.452Z,13.9286
2022-10-19T03:08:03.491Z,13.9286
2022-10-19T03:09:03.519Z,13.9286
2022-10-19T03:10:03.550Z,13.9286
2022-10-19T03:11:03.583Z,13.9286
2022-10-19T03:12:03.611Z,13.9286
2022-10-19T03:13:03.638Z,13.9286
2022-10-19T03:14:03.679Z,13.9286
2022-10-19T03:15:03.707Z,13.9286
2022-10-19T03:16:03.739Z,13.9286
2022-10-19T03:17:03.769Z,14
2022-10-19T03:18:03.800Z,14
2022-10-19T03:19:03.835Z,14
2022-10-19T03:20:03.865Z,13.9286
2022-10-19T03:21:03.892Z,13.9286
2022-10-19T03:22:03.937Z,14
2022-10-19T03:23:03.961Z,13.9286
2022-10-19T03:24:03.986Z,13.9286
2022-10-19T03:25:04.024Z,14
2022-10-19T03:26:05.622Z,14
2022-10-19T03:27:04.089Z,14
2022-10-19T03:28:04.119Z,14
2022-10-19T03:29:04.248Z,14
2022-10-19T03:30:04.186Z,14
2022-10-19T03:31:04.228Z,14
2022-10-19T03:32:04.255Z,14
2022-10-19T03:33:04.300Z,14
2022-10-19T03:34:04.324Z,14
2022-10-19T03:35:04.357Z,14
2022-10-19T03:36:04.396Z,14
2022-10-19T03:37:04.433Z,13.9286
2022-10-19T03:38:04.462Z,13.9286
2022-10-19T03:39:04.488Z,13.9286
2022-10-19T03:40:04.521Z,13.9286
2022-10-19T03:41:04.552Z,13.9286
2022-10-19T03:42:04.587Z,13.9286
2022-10-19T03:43:04.624Z,14
2022-10-19T03:44:04.661Z,13.9286
2022-10-19T03:45:04.689Z,13.9286
2022-10-19T03:46:04.722Z,13.9286
2022-10-19T03:47:04.755Z,13.9286
2022-10-19T03:48:04.817Z,13.9286
2022-10-19T03:49:04.827Z,13.9286
2022-10-19T03:50:04.856Z,13.9286
2022-10-19T03:51:04.898Z,14
2022-10-19T03:52:04.931Z,13.9286
2022-10-19T03:53:04.999Z,13.9286
2022-10-19T03:54:04.996Z,13.9286
2022-10-19T03:55:05.035Z,14
2022-10-19T03:56:05.065Z,14
2022-10-19T03:57:05.099Z,14
2022-10-19T03:58:05.135Z,14
2022-10-19T03:59:05.167Z,14
2022-10-19T04:00:05.194Z,14
2022-10-19T04:01:05.293Z,13.9286
2022-10-19T04:02:05.268Z,14
2022-10-19T04:03:05.302Z,14
2022-10-19T04:04:05.330Z,14
2022-10-19T04:05:05.366Z,14
2022-10-19T04:06:05.398Z,13.9286
2022-10-19T04:07:05.426Z,13.9286
2022-10-19T04:08:05.452Z,13.9286
2022-10-19T04:09:05.483Z,13.9286
2022-10-19T04:10:05.524Z,13.9286
2022-10-19T04:11:05.561Z,14
2022-10-19T04:12:05.596Z,14
2022-10-19T04:13:05.617Z,13.9286
2022-10-19T04:14:05.688Z,14
2022-10-19T04:15:05.695Z,14
2022-10-19T04:16:05.742Z,14
2022-10-19T04:17:05.763Z,14
2022-10-19T04:18:05.797Z,14
2022-10-19T04:19:05.826Z,14
2022-10-19T04:20:05.856Z,14
2022-10-19T04:21:05.894Z,14
2022-10-19T04:22:05.932Z,13.9286
2022-10-19T04:23:06.014Z,14
2022-10-19T04:24:05.988Z,14
2022-10-19T04:25:06.021Z,14
2022-10-19T04:26:06.062Z,14
2022-10-19T04:27:06.086Z,14
2022-10-19T04:28:06.115Z,14
2022-10-19T04:29:06.247Z,14
2022-10-19T04:30:06.186Z,14
2022-10-19T04:31:06.221Z,14
2022-10-19T04:32:06.257Z,14
2022-10-19T04:33:06.297Z,14
2022-10-19T04:34:06.325Z,14
2022-10-19T04:35:06.353Z,14
2022-10-19T04:36:06.392Z,14
2022-10-19T04:37:06.423Z,14
2022-10-19T04:38:06.461Z,14
2022-10-19T04:39:06.492Z,14
2022-10-19T04:40:06.529Z,13.9286
2022-10-19T04:41:06.560Z,13.9286
2022-10-19T04:42:06.592Z,13.9286
2022-10-19T04:43:06.632Z,13.9286
2022-10-19T04:44:06.665Z,14
2022-10-19T04:45:06.694Z,14
2022-10-19T04:46:06.730Z,14
2022-10-19T04:47:06.772Z,14
2022-10-19T04:48:06.807Z,14
2022-10-19T04:49:07.017Z,14
2022-10-19T04:50:06.881Z,14
2022-10-19T04:51:06.915Z,14
2022-10-19T04:52:06.951Z,14
2022-10-19T04:53:07.018Z,14
2022-10-19T04:54:07.026Z,14
2022-10-19T04:55:07.064Z,14
2022-10-19T04:56:07.096Z,14
2022-10-19T04:57:07.129Z,14
2022-10-19T04:58:07.172Z,14
2022-10-19T04:59:07.197Z,14
2022-10-19T05:00:07.235Z,14
2022-10-19T05:01:07.297Z,14
2022-10-19T05:02:07.304Z,14
2022-10-19T05:03:07.343Z,14
2022-10-19T05:04:07.377Z,14
2022-10-19T05:05:07.406Z,14
2022-10-19T05:06:07.440Z,14
2022-10-19T05:07:07.470Z,14
2022-10-19T05:08:07.500Z,14
2022-10-19T05:09:07.538Z,14
2022-10-19T05:10:07.563Z,14
2022-10-19T05:11:07.594Z,14
2022-10-19T05:12:07.629Z,14
2022-10-19T05:13:07.660Z,14
2022-10-19T05:14:07.692Z,14
2022-10-19T05:15:07.727Z,14
2022-10-19T05:16:07.765Z,14
2022-10-19T05:17:07.796Z,14
2022-10-19T05:18:07.822Z,14
2022-10-19T05:19:07.861Z,14
2022-10-19T05:20:07.892Z,14.0714
2022-10-19T05:21:07.924Z,14.0714
2022-10-19T05:22:07.972Z,14.0714
2022-10-19T05:23:07.981Z,14
2022-10-19T05:24:08.013Z,14
2022-10-19T05:25:08.036Z,14
2022-10-19T05:26:08.064Z,14
2022-10-19T05:27:08.098Z,14
2022-10-19T05:28:08.127Z,14
2022-10-19T05:29:08.173Z,14
2022-10-19T05:30:08.188Z,14
2022-10-19T05:31:08.218Z,14
2022-10-19T05:32:08.252Z,14
2022-10-19T05:33:08.288Z,14
2022-10-19T05:35:08.359Z,14
2022-10-19T05:36:08.382Z,14
2022-10-19T05:37:08.419Z,14
2022-10-19T05:38:08.449Z,14
2022-10-19T05:39:08.471Z,14
2022-10-19T05:40:08.506Z,14
2022-10-19T05:41:08.536Z,14
2022-10-19T05:42:08.569Z,14
2022-10-19T05:43:08.597Z,14
2022-10-19T05:44:08.629Z,14
2022-10-19T05:45:08.655Z,14
2022-10-19T05:46:08.683Z,14
2022-10-19T05:47:08.715Z,13.9286
2022-10-19T05:48:08.741Z,13.9286
2022-10-19T05:49:08.776Z,13.9286
2022-10-19T05:50:08.810Z,13.9286
2022-10-19T05:51:08.842Z,14
2022-10-19T05:52:08.877Z,13.9286
2022-10-19T05:53:08.909Z,13.9286
2022-10-19T05:54:08.941Z,13.9286
2022-10-19T05:55:08.974Z,13.9286
2022-10-19T05:56:09.006Z,13.9286
2022-10-19T05:57:09.038Z,13.9286
2022-10-19T05:58:09.075Z,13.9286
2022-10-19T05:59:09.098Z,13.9286
2022-10-19T06:00:09.138Z,13.9286
2022-10-19T06:01:09.175Z,13.9286
2022-10-19T06:02:09.259Z,13.9286
2022-10-19T06:03:09.240Z,13.9286
2022-10-19T06:04:09.408Z,13.9286
2022-10-19T06:05:09.306Z,13.8571
2022-10-19T06:06:09.334Z,13.8571
2022-10-19T06:07:09.371Z,13.7857
2022-10-19T06:08:09.406Z,13.8571
2022-10-19T06:09:09.434Z,13.8571
2022-10-19T06:10:09.475Z,13.8571
2022-10-19T06:11:09.509Z,13.8571
2022-10-19T06:12:09.536Z,13.8571
2022-10-19T06:13:09.571Z,13.8571
2022-10-19T06:14:09.604Z,13.8571
2022-10-19T06:15:09.637Z,13.9286
2022-10-19T06:16:09.674Z,13.9286
2022-10-19T06:17:09.706Z,13.9286
2022-10-19T06:18:09.737Z,13.9286
2022-10-19T06:19:09.767Z,13.9286
2022-10-19T06:20:09.793Z,14
2022-10-19T06:21:09.818Z,14
2022-10-19T06:22:09.852Z,14
2022-10-19T06:23:09.874Z,14
2022-10-19T06:24:09.906Z,14
2022-10-19T06:25:09.931Z,14
2022-10-19T06:26:09.982Z,14
2022-10-19T06:27:10.052Z,14
2022-10-19T06:28:10.036Z,14
2022-10-19T06:29:10.059Z,14
2022-10-19T06:30:10.081Z,14
2022-10-19T06:31:10.193Z,14.0714
2022-10-19T06:32:10.145Z,14
2022-10-19T06:33:10.168Z,14
2022-10-19T06:34:10.252Z,14
2022-10-19T06:35:10.227Z,14.0714
2022-10-19T06:36:10.257Z,14.0714
2022-10-19T06:37:10.292Z,14.0714
2022-10-19T06:38:10.317Z,14.0714
2022-10-19T06:39:10.355Z,14.0714
2022-10-19T06:40:10.417Z,14.0714
2022-10-19T06:41:10.420Z,14.0714
2022-10-19T06:42:10.451Z,14.0714
2022-10-19T06:43:10.482Z,14.1429
2022-10-19T06:44:10.515Z,14.1429
2022-10-19T06:45:10.548Z,14.1429
2022-10-19T06:46:10.580Z,14.1429
2022-10-19T06:47:10.605Z,14.2143
2022-10-19T06:48:10.630Z,14.2143
2022-10-19T06:49:10.655Z,14.2143
2022-10-19T06:50:10.683Z,14.2143
2022-10-19T06:51:10.718Z,14.1429
2022-10-19T06:52:10.757Z,14.1429
2022-10-19T06:53:10.780Z,14.2143
2022-10-19T06:54:10.816Z,14.2143
2022-10-19T06:55:10.855Z,14.2143
2022-10-19T06:56:10.890Z,14.2143
2022-10-19T06:57:10.912Z,14.2143
2022-10-19T06:58:10.937Z,14.2857
2022-10-19T06:59:10.970Z,14.2857
2022-10-19T07:00:10.999Z,14.2857
2022-10-19T07:01:11.099Z,14.2857
2022-10-19T07:02:11.066Z,14.2857
2022-10-19T07:03:11.095Z,14.2857
2022-10-19T07:04:11.139Z,14.2857
2022-10-19T07:05:11.153Z,14.2857
2022-10-19T07:06:11.193Z,14.2857
2022-10-19T07:07:11.305Z,14.2857
2022-10-19T07:08:11.323Z,14.2857
2022-10-19T07:09:11.290Z,14.3571
2022-10-19T07:10:11.319Z,14.3571
2022-10-19T07:11:11.358Z,14.3571
2022-10-19T07:12:11.384Z,14.4286
2022-10-19T07:13:11.446Z,14.4286
2022-10-19T07:14:11.451Z,14.4286
2022-10-19T07:15:11.479Z,14.4286
2022-10-19T07:16:14.520Z,14.4286
2022-10-19T07:17:11.602Z,14.4286
2022-10-19T07:18:11.569Z,14.5
2022-10-19T07:19:11.596Z,14.5
2022-10-19T07:20:11.635Z,14.5
2022-10-19T07:21:11.662Z,14.5714
2022-10-19T07:22:14.467Z,14.5714
2022-10-19T07:23:11.717Z,14.5714
2022-10-19T07:24:11.747Z,14.6429
2022-10-19T07:25:11.783Z,14.6429
2022-10-19T07:26:11.808Z,14.6429
2022-10-19T07:27:11.828Z,14.7143
2022-10-19T07:28:11.858Z,14.7143
2022-10-19T07:29:11.894Z,14.7143
2022-10-19T07:30:11.921Z,14.7143
2022-10-19T07:31:11.948Z,14.7143
2022-10-19T07:32:11.974Z,14.7857
2022-10-19T07:33:12.045Z,14.7857
2022-10-19T07:34:12.041Z,14.7857
2022-10-19T07:35:12.066Z,14.8571
2022-10-19T07:36:12.095Z,14.8571
2022-10-19T07:37:12.129Z,14.9286
2022-10-19T07:38:12.162Z,14.9286
2022-10-19T07:39:12.193Z,15
2022-10-19T07:40:12.223Z,15
2022-10-19T07:41:12.264Z,15
2022-10-19T07:42:12.360Z,15
2022-10-19T07:43:12.325Z,15.0714
2022-10-19T07:44:15.557Z,15.0714
2022-10-19T07:45:12.386Z,15.0714
2022-10-19T07:46:12.415Z,15.1429
2022-10-19T07:47:12.450Z,15.1429
2022-10-19T07:48:12.485Z,15.1429
2022-10-19T07:49:12.521Z,15.1429
2022-10-19T07:50:12.555Z,15.1429
2022-10-19T07:51:12.584Z,15.1429
2022-10-19T07:52:12.608Z,15.1429
2022-10-19T07:53:12.647Z,15.2143
2022-10-19T07:54:12.688Z,15.2143
2022-10-19T07:55:12.720Z,15.2143
2022-10-19T07:56:12.750Z,15.2143
2022-10-19T07:57:12.779Z,15.2857
2022-10-19T07:58:12.805Z,15.2857
2022-10-19T07:59:12.839Z,15.2857
2022-10-19T08:00:12.874Z,15.2857
2022-10-19T08:01:12.904Z,15.2857
2022-10-19T08:02:12.990Z,15.2857
2022-10-19T08:04:31.369Z,15.3571
2022-10-19T08:04:49.027Z,15.3571
2022-10-19T08:05:13.294Z,15.3571
2022-10-19T08:06:13.061Z,15.3571
2022-10-19T08:07:13.107Z,15.4286
2022-10-19T08:08:13.126Z,15.3571
2022-10-19T08:09:23.017Z,15.3571
2022-10-19T08:10:13.193Z,15.3571
2022-10-19T08:11:13.224Z,15.3571
2022-10-19T08:12:15.351Z,15.3571
2022-10-19T08:13:13.293Z,15.3571
2022-10-19T08:14:13.331Z,15.3571
2022-10-19T08:15:13.367Z,15.3571
2022-10-19T08:16:13.396Z,15.4286
2022-10-19T08:17:13.418Z,15.4286
2022-10-19T08:18:13.455Z,15.4286
2022-10-19T08:19:13.494Z,15.4286
2022-10-19T08:20:13.519Z,15.4286
2022-10-19T08:21:13.554Z,15.4286
2022-10-19T08:22:13.591Z,15.4286
2022-10-19T08:23:13.629Z,15.5
2022-10-19T08:24:13.655Z,15.5
2022-10-19T08:25:13.680Z,15.5
2022-10-19T08:26:13.721Z,15.5
2022-10-19T08:27:13.753Z,15.5
2022-10-19T08:28:13.792Z,15.5714
2022-10-19T08:29:13.819Z,15.5714
2022-10-19T08:30:13.851Z,15.5714
2022-10-19T08:31:13.892Z,15.5714
2022-10-19T08:32:13.909Z,15.6429
2022-10-19T08:33:13.941Z,15.6429
2022-10-19T08:34:13.978Z,15.6429
2022-10-19T08:35:14.037Z,15.7143
2022-10-19T08:36:14.043Z,15.7143
2022-10-19T08:37:26.078Z,15.7143
2022-10-19T08:38:14.099Z,15.7143
2022-10-19T08:39:14.130Z,15.7143
2022-10-19T08:40:14.181Z,15.7143
2022-10-19T08:41:14.195Z,15.7143
2022-10-19T08:42:14.230Z,15.7857
2022-10-19T08:43:14.258Z,15.7857
2022-10-19T08:44:14.285Z,15.7857
2022-10-19T08:45:14.310Z,15.7857
2022-10-19T08:46:14.340Z,15.8571
2022-10-19T08:47:14.804Z,15.8571
2022-10-19T08:48:14.407Z,15.8571
2022-10-19T08:49:14.436Z,15.8571
2022-10-19T08:50:14.465Z,15.9286
2022-10-19T08:51:14.508Z,15.9286
2022-10-19T08:52:14.538Z,16
2022-10-19T08:53:14.590Z,16
2022-10-19T08:54:14.607Z,16
2022-10-19T08:55:18.043Z,16
2022-10-19T08:56:22.146Z,16.0714
2022-10-19T08:57:14.691Z,16.0714
2022-10-19T08:58:14.727Z,16.0714
2022-10-19T08:59:14.750Z,16.0714
2022-10-19T09:00:14.793Z,16.0714
2022-10-19T09:01:14.831Z,16.0714
2022-10-19T09:02:14.861Z,16.0714
2022-10-19T09:03:20.022Z,16.0714
2022-10-19T09:04:14.929Z,16.0714
2022-10-19T09:05:14.949Z,16.0714
2022-10-19T09:06:14.978Z,16.0714
2022-10-19T09:07:15.006Z,16
2022-10-19T09:08:17.760Z,16
2022-10-19T09:09:15.063Z,15.9286
2022-10-19T09:10:15.090Z,15.9286
2022-10-19T09:11:15.125Z,15.8571
2022-10-19T09:12:15.158Z,15.7857
2022-10-19T09:13:15.188Z,15.7857
2022-10-19T09:14:15.222Z,15.7143
2022-10-19T09:15:15.253Z,15.7143
2022-10-19T09:16:15.280Z,15.6429
2022-10-19T09:17:15.310Z,15.6429
2022-10-19T09:18:15.338Z,15.5714
2022-10-19T09:19:15.369Z,15.5714
2022-10-19T09:20:15.397Z,15.5714
2022-10-19T09:21:15.430Z,15.5714
2022-10-19T09:22:15.461Z,15.5714
2022-10-19T09:23:15.488Z,15.5714
2022-10-19T09:24:15.518Z,15.5714
2022-10-19T09:25:15.547Z,15.5714
2022-10-19T09:26:15.580Z,15.5714
2022-10-19T09:27:15.610Z,15.5714
2022-10-19T09:28:15.645Z,15.5714
2022-10-19T09:29:15.689Z,15.6429
2022-10-19T09:30:15.718Z,15.7143
2022-10-19T09:31:15.753Z,15.7857
2022-10-19T09:32:15.786Z,15.8571
2022-10-19T09:33:15.833Z,15.8571
2022-10-19T09:34:15.833Z,16
2022-10-19T09:35:15.856Z,16.0714
2022-10-19T09:36:22.550Z,16.1429
2022-10-19T09:37:21.203Z,16.1429
2022-10-19T09:38:15.933Z,16.2143
2022-10-19T09:39:15.964Z,16.2857
2022-10-19T09:40:15.999Z,16.3571
2022-10-19T09:41:16.021Z,16.3571
2022-10-19T09:42:16.061Z,16.4286
2022-10-19T09:43:16.088Z,16.5
2022-10-19T09:44:16.120Z,16.5
2022-10-19T09:45:16.151Z,16.5714
2022-10-19T09:46:20.148Z,16.5714
2022-10-19T09:47:16.223Z,16.5714
2022-10-19T09:48:16.252Z,16.6429
2022-10-19T09:49:16.292Z,16.6429
2022-10-19T09:50:16.317Z,16.6429
2022-10-19T09:51:16.356Z,16.7143
2022-10-19T09:52:16.384Z,16.7143
2022-10-19T09:53:16.415Z,16.7143
2022-10-19T09:54:16.446Z,16.7143
2022-10-19T09:55:16.486Z,16.7143
2022-10-19T09:56:16.517Z,16.7143
2022-10-19T09:57:16.550Z,16.7143
2022-10-19T09:58:16.591Z,16.6429
2022-10-19T09:59:16.608Z,16.7143
2022-10-19T10:00:16.634Z,16.7143
2022-10-19T10:01:16.666Z,16.7143
2022-10-19T10:02:16.699Z,16.7143
2022-10-19T10:03:16.727Z,16.7143
2022-10-19T10:04:16.756Z,16.7143
2022-10-19T10:05:16.805Z,16.7143
2022-10-19T10:06:16.827Z,16.7143
2022-10-19T10:07:16.867Z,16.7143
2022-10-19T10:08:16.901Z,16.7143
2022-10-19T10:09:16.933Z,16.7143
2022-10-19T10:10:17.028Z,16.7143
2022-10-19T10:11:16.985Z,16.7143
2022-10-19T10:12:17.030Z,16.7143
2022-10-19T10:13:17.059Z,16.7857
2022-10-19T10:14:17.084Z,16.7857
2022-10-19T10:15:17.113Z,16.7857
2022-10-19T10:16:17.150Z,16.7857
2022-10-19T10:17:17.178Z,16.7857
2022-10-19T10:18:17.216Z,16.7857
2022-10-19T10:19:17.242Z,16.7857
2022-10-19T10:20:17.290Z,16.7857
2022-10-19T10:21:18.760Z,16.7857
2022-10-19T10:22:17.337Z,16.7143
2022-10-19T10:23:17.366Z,16.7143
2022-10-19T10:24:17.394Z,16.7143
2022-10-19T10:25:17.433Z,16.7143
2022-10-19T10:26:17.459Z,16.7857
2022-10-19T10:27:17.485Z,16.7857
2022-10-19T10:28:17.509Z,16.7857
2022-10-19T10:29:17.540Z,16.8571
2022-10-19T10:30:17.568Z,16.8571
2022-10-19T10:31:17.593Z,16.8571
2022-10-19T10:32:17.630Z,16.9286
2022-10-19T10:33:26.947Z,16.9286
2022-10-19T10:34:23.215Z,17
2022-10-19T10:35:17.733Z,17
2022-10-19T10:36:17.769Z,17.0714
2022-10-19T10:37:17.792Z,17.0714
2022-10-19T10:38:17.820Z,17.1429
2022-10-19T10:39:17.849Z,17.1429
2022-10-19T10:40:21.206Z,17.1429
2022-10-19T10:41:17.914Z,17.0714
2022-10-19T10:42:17.948Z,17.0714
2022-10-19T10:43:17.985Z,17
2022-10-19T10:44:18.021Z,17
2022-10-19T10:45:18.051Z,17
2022-10-19T10:46:18.078Z,16.9286
2022-10-19T10:47:18.104Z,16.9286
2022-10-19T10:48:18.139Z,16.9286
2022-10-19T10:49:18.162Z,16.8571
2022-10-19T10:50:18.194Z,16.8571
2022-10-19T10:51:18.239Z,16.8571
2022-10-19T10:52:18.277Z,16.8571
2022-10-19T10:53:18.299Z,16.7857
2022-10-19T10:54:18.327Z,16.7143
2022-10-19T10:55:18.365Z,16.7143
2022-10-19T10:56:18.397Z,16.6429
2022-10-19T10:57:18.502Z,16.6429
2022-10-19T10:58:18.465Z,16.5714
2022-10-19T10:59:18.495Z,16.5
2022-10-19T11:00:18.530Z,16.5
2022-10-19T11:01:18.604Z,16.4286
2022-10-19T11:02:18.648Z,16.4286
2022-10-19T11:03:18.619Z,16.3571
2022-10-19T11:04:18.646Z,16.3571
2022-10-19T11:05:18.679Z,16.2857
2022-10-19T11:06:18.749Z,16.2857
2022-10-19T11:07:18.746Z,16.2143
2022-10-19T11:08:18.770Z,16.2143
2022-10-19T11:09:18.802Z,16.2143
2022-10-19T11:10:18.837Z,16.2143
2022-10-19T11:11:18.862Z,16.2143
2022-10-19T11:12:18.897Z,16.2143
2022-10-19T11:13:18.923Z,16.2143
2022-10-19T11:14:18.952Z,16.2857
2022-10-19T11:15:19.060Z,16.2857
2022-10-19T11:16:19.022Z,16.2857
2022-10-19T11:17:19.056Z,16.3571
2022-10-19T11:18:19.091Z,16.4286
2022-10-19T11:19:19.126Z,16.5
2022-10-19T11:20:19.145Z,16.5714
2022-10-19T11:21:19.188Z,16.6429
2022-10-19T11:22:22.385Z,16.6429
2022-10-19T11:23:19.253Z,16.6429
2022-10-19T11:24:19.394Z,16.7143
2022-10-19T11:25:19.322Z,16.7143
2022-10-19T11:26:19.356Z,16.7143
2022-10-19T11:27:19.383Z,16.6429
2022-10-19T11:28:19.420Z,16.6429
2022-10-19T11:29:19.449Z,16.6429
2022-10-19T11:30:19.490Z,16.6429
2022-10-19T11:31:19.521Z,16.5714
2022-10-19T11:32:19.545Z,16.5714
2022-10-19T11:33:19.581Z,16.5
2022-10-19T11:34:22.376Z,16.5
2022-10-19T11:35:19.643Z,16.5714
2022-10-19T11:36:19.677Z,16.5714
2022-10-19T11:37:19.713Z,16.6429
2022-10-19T11:38:21.807Z,16.7143
2022-10-19T11:39:19.779Z,16.7857
2022-10-19T11:40:22.101Z,16.8571
2022-10-19T11:41:19.835Z,16.9286
2022-10-19T11:42:19.871Z,17
2022-10-19T11:43:22.352Z,17.0714
2022-10-19T11:44:19.940Z,17.1429
2022-10-19T11:45:19.962Z,17.2143
2022-10-19T11:46:19.998Z,17.2143
2022-10-19T11:47:20.039Z,17.2857
2022-10-19T11:48:20.068Z,17.2857
2022-10-19T11:49:20.097Z,17.3571
2022-10-19T11:50:20.123Z,17.3571
2022-10-19T11:51:21.612Z,17.4286
2022-10-19T11:52:20.172Z,17.3571
2022-10-19T11:53:20.199Z,17.3571
2022-10-19T11:54:20.232Z,17.2143
2022-10-19T11:55:20.264Z,17.1429
2022-10-19T11:56:20.301Z,17
2022-10-19T11:57:20.337Z,16.8571
2022-10-19T11:58:20.356Z,16.7857
2022-10-19T11:59:20.397Z,16.7143
2022-10-19T12:00:38.169Z,16.6429
2022-10-19T12:01:20.461Z,16.5714
2022-10-19T12:02:20.538Z,16.5
2022-10-19T12:03:20.521Z,16.4286
2022-10-19T12:04:20.562Z,16.3571
2022-10-19T12:05:20.593Z,16.2857
2022-10-19T12:06:20.622Z,16.2143
2022-10-19T12:07:20.655Z,16.1429
2022-10-19T12:08:20.694Z,16.1429
2022-10-19T12:09:20.776Z,16.0714
2022-10-19T12:10:20.755Z,16
2022-10-19T12:11:20.799Z,16
2022-10-19T12:12:20.828Z,16
2022-10-19T12:13:20.865Z,15.9286
2022-10-19T12:14:20.901Z,15.9286
2022-10-19T12:15:20.930Z,15.9286
2022-10-19T12:16:20.958Z,15.9286
2022-10-19T12:17:20.994Z,15.9286
2022-10-19T12:18:21.034Z,15.9286
2022-10-19T12:19:21.066Z,15.9286
2022-10-19T12:20:21.100Z,16
2022-10-19T12:21:21.131Z,16
2022-10-19T12:22:21.170Z,16
2022-10-19T12:23:21.197Z,16.0714
2022-10-19T12:24:21.227Z,16.1429
2022-10-19T12:25:21.264Z,16.2143
2022-10-19T12:26:21.303Z,16.2857
2022-10-19T12:27:21.316Z,16.3571
2022-10-19T12:28:21.348Z,16.5
2022-10-19T12:29:21.376Z,16.5
2022-10-19T12:30:21.391Z,16.6429
2022-10-19T12:31:21.426Z,16.7143
2022-10-19T12:32:21.462Z,16.7857
2022-10-19T12:33:21.502Z,16.8571
2022-10-19T12:34:21.530Z,16.9286